Time;durP1;ratioP1;P1;durP2;ratioP2;P2;SDS_P1;SDS_P2;PMS_P1;PMS_P2;Temp;Humidity;BMP_temperature;BMP_pressure;BME280_temperature;BME280_humidity;BME280_pressure;Samples;Min_cycle;Max_cycle;Signal;HPM_P1;HPM_P2
2022/02/07 00:01:05;;;;;;;15.05;12.38;;;4.50;99.90;;;;;;5046919;28;20190;-74
2022/02/07 00:03:41;;;;;;;16.27;12.95;;;4.50;99.90;;;;;;5047571;28;20222;-72
2022/02/07 00:06:08;;;;;;;20.45;16.88;;;4.60;99.90;;;;;;5046723;28;20322;-73
2022/02/07 00:08:35;;;;;;;23.40;18.88;;;4.60;99.90;;;;;;5046183;28;20229;-75
2022/02/07 00:11:02;;;;;;;30.05;21.10;;;4.50;99.90;;;;;;5050013;28;20210;-73
2022/02/07 00:13:30;;;;;;;30.25;22.48;;;4.40;99.90;;;;;;5046160;28;20238;-74
2022/02/07 00:15:57;;;;;;;32.50;24.58;;;4.40;99.90;;;;;;5046297;28;20421;-74
2022/02/07 00:18:24;;;;;;;38.63;27.80;;;4.30;99.90;;;;;;5045284;28;20219;-74
2022/02/07 00:20:53;;;;;;;35.80;28.30;;;4.20;99.90;;;;;;5050684;28;20229;-74
2022/02/07 00:23:20;;;;;;;35.55;25.38;;;4.10;99.90;;;;;;5047739;28;20593;-74
2022/02/07 00:25:47;;;;;;;31.73;25.05;;;4.00;99.90;;;;;;5110885;22;20326;-67
2022/02/07 00:28:14;;;;;;;25.45;21.35;;;4.00;99.90;;;;;;5066869;28;20222;-66
2022/02/07 00:30:41;;;;;;;32.17;23.52;;;4.00;99.90;;;;;;5069227;28;20221;-67
2022/02/07 00:33:09;;;;;;;29.30;21.88;;;4.00;99.90;;;;;;5071499;28;20218;-66
2022/02/07 00:35:36;;;;;;;30.67;23.52;;;4.10;99.90;;;;;;5071886;28;20214;-67
2022/02/07 00:38:09;;;;;;;30.77;23.02;;;4.10;99.90;;;;;;5070861;28;20991;-66
2022/02/07 00:40:59;;;;;;;30.55;23.02;;;4.00;99.90;;;;;;5069749;28;20202;-66
2022/02/07 00:43:36;;;;;;;30.35;24.55;;;4.10;99.90;;;;;;5069626;28;20218;-66
2022/02/07 00:46:09;;;;;;;28.38;22.70;;;4.00;99.90;;;;;;5070814;28;20703;-67
2022/02/07 00:48:36;;;;;;;25.45;20.75;;;4.00;99.90;;;;;;5072064;28;20214;-67
2022/02/07 00:51:03;;;;;;;33.78;25.13;;;4.10;99.90;;;;;;5070746;28;20225;-66
2022/02/07 00:53:33;;;;;;;27.73;21.67;;;4.10;99.90;;;;;;5069268;28;20275;-66
2022/02/07 00:56:02;;;;;;;23.55;19.00;;;4.10;99.90;;;;;;5075692;28;20214;-66
2022/02/07 00:58:29;;;;;;;24.30;17.88;;;3.90;99.90;;;;;;5068949;28;20293;-67
2022/02/07 01:00:56;;;;;;;28.83;20.05;;;4.00;99.90;;;;;;5074309;28;20186;-66
2022/02/07 01:03:24;;;;;;;31.42;25.05;;;4.00;99.90;;;;;;5067162;28;20237;-66
2022/02/07 01:05:51;;;;;;;36.38;26.40;;;4.00;99.90;;;;;;5073743;28;21019;-66
2022/02/07 01:08:22;;;;;;;26.00;20.67;;;4.00;99.90;;;;;;5072545;28;20214;-67
2022/02/07 01:10:58;;;;;;;22.90;17.88;;;3.90;99.90;;;;;;5074762;28;20245;-67
2022/02/07 01:13:38;;;;;;;21.77;17.48;;;3.80;99.90;;;;;;5069122;28;20214;-69
2022/02/07 01:16:14;;;;;;;22.45;16.90;;;3.80;99.90;;;;;;5075645;28;20304;-66
2022/02/07 01:19:21;;;;;;;19.52;15.55;;;3.80;99.90;;;;;;5072541;28;20228;-66
2022/02/07 01:47:08;;;;;;;17.52;14.40;;;3.70;99.90;;;;;;5069336;28;20687;-67
2022/02/07 01:49:57;;;;;;;15.55;12.48;;;3.70;99.90;;;;;;5077858;28;20267;-66
2022/02/07 01:52:45;;;;;;;16.13;13.02;;;3.70;99.90;;;;;;5070842;28;20218;-67
2022/02/07 01:55:18;;;;;;;15.93;12.15;;;3.70;99.90;;;;;;5068005;28;20230;-67
2022/02/07 01:57:46;;;;;;;14.93;12.05;;;3.70;99.90;;;;;;5068696;28;20218;-67
2022/02/07 02:00:17;;;;;;;16.52;12.55;;;3.70;99.90;;;;;;5072551;28;20194;-66
2022/02/07 02:02:44;;;;;;;15.43;12.85;;;3.80;99.90;;;;;;5069244;28;20218;-67
2022/02/07 02:05:11;;;;;;;15.73;13.70;;;3.90;99.90;;;;;;5070441;28;20225;-66
2022/02/07 02:07:40;;;;;;;11.73;10.52;;;3.80;99.90;;;;;;5070038;28;20218;-67
2022/02/07 02:10:09;;;;;;;11.98;9.93;;;3.70;99.90;;;;;;5070092;28;20845;-66
2022/02/07 02:12:44;;;;;;;11.07;9.48;;;3.60;99.90;;;;;;5069161;28;20222;-67
2022/02/07 02:15:25;;;;;;;10.35;9.10;;;3.60;99.90;;;;;;5066601;28;20221;-66
2022/02/07 02:18:28;;;;;;;9.82;8.75;;;3.60;99.90;;;;;;5068018;28;20225;-66
2022/02/07 02:22:01;;;;;;;9.07;8.18;;;3.70;99.90;;;;;;5067328;28;20203;-66
2022/02/07 02:35:40;;;;;;;10.55;8.38;;;3.90;99.90;;;;;;5040380;28;20275;-66
2022/02/07 02:38:10;;;;;;;9.63;8.63;;;3.90;99.90;;;;;;5074492;28;20223;-66
2022/02/07 02:46:08;;;;;;;14.88;12.40;;;4.00;99.90;;;;;;5070589;28;20225;-67
2022/02/07 02:48:41;;;;;;;15.60;12.82;;;4.00;99.90;;;;;;5071214;28;20275;-67
2022/02/07 02:51:09;;;;;;;16.02;13.02;;;4.00;99.90;;;;;;5071156;28;20226;-66
2022/02/07 02:53:36;;;;;;;17.48;13.75;;;3.90;99.90;;;;;;5068705;28;20607;-66
2022/02/07 02:56:05;;;;;;;15.65;13.65;;;3.90;99.90;;;;;;5070753;28;20711;-66
2022/02/07 02:58:32;;;;;;;17.65;13.38;;;3.90;99.90;;;;;;5069564;28;20229;-66
2022/02/07 03:00:59;;;;;;;15.27;12.05;;;3.90;99.90;;;;;;5069477;28;20253;-66
2022/02/07 03:03:26;;;;;;;14.63;12.77;;;4.00;99.90;;;;;;5067341;28;20222;-66
2022/02/07 03:05:53;;;;;;;14.60;12.27;;;4.00;99.90;;;;;;5068824;28;20214;-66
2022/02/07 03:08:20;;;;;;;15.75;12.93;;;3.90;99.90;;;;;;5067963;28;20210;-66
2022/02/07 03:10:59;;;;;;;16.83;13.30;;;3.90;99.90;;;;;;5067519;28;20591;-67
2022/02/07 03:13:46;;;;;;;16.90;13.95;;;3.90;99.90;;;;;;5071606;28;20279;-66
2022/02/07 03:18:59;;;;;;;13.57;11.98;;;3.90;99.90;;;;;;5065417;28;20642;-67
2022/02/07 03:21:26;;;;;;;13.25;11.88;;;3.90;99.90;;;;;;5067276;28;20191;-67
2022/02/07 03:23:53;;;;;;;15.07;12.52;;;3.80;99.90;;;;;;5070325;28;20644;-66
2022/02/07 03:26:21;;;;;;;11.57;10.35;;;3.70;99.90;;;;;;5077216;28;20205;-67
2022/02/07 03:28:50;;;;;;;13.20;10.63;;;3.60;99.90;;;;;;5072152;28;20224;-67
2022/02/07 03:31:18;;;;;;;11.43;10.00;;;3.50;99.90;;;;;;5075199;28;20210;-66
2022/02/07 03:33:46;;;;;;;9.95;8.95;;;3.50;99.90;;;;;;5074032;28;20225;-66
2022/02/07 03:36:13;;;;;;;9.05;8.15;;;3.40;99.90;;;;;;5072046;28;20460;-66
2022/02/07 03:38:41;;;;;;;8.77;7.88;;;3.50;99.90;;;;;;5068837;28;20214;-66
2022/02/07 03:41:09;;;;;;;10.52;9.35;;;3.60;99.90;;;;;;5072173;28;20710;-66
2022/02/07 03:43:37;;;;;;;8.27;7.32;;;3.60;99.90;;;;;;5071805;28;20237;-67
2022/02/07 03:46:05;;;;;;;11.23;10.07;;;3.70;99.90;;;;;;5071611;28;20218;-66
2022/02/07 03:48:34;;;;;;;10.98;9.88;;;3.80;99.90;;;;;;5071002;28;20229;-67
2022/02/07 03:51:01;;;;;;;10.38;9.27;;;3.70;99.90;;;;;;5069728;28;20249;-67
2022/02/07 03:53:28;;;;;;;10.73;9.55;;;3.60;99.90;;;;;;5071929;28;20217;-66
2022/02/07 03:55:55;;;;;;;9.90;8.80;;;3.50;99.90;;;;;;5071437;28;20218;-67
2022/02/07 03:58:22;;;;;;;9.70;8.73;;;3.40;99.90;;;;;;5070008;28;20218;-66
2022/02/07 04:00:51;;;;;;;8.95;8.05;;;3.40;99.90;;;;;;5069822;28;20191;-66
2022/02/07 04:03:23;;;;;;;8.98;7.70;;;3.40;99.90;;;;;;5069916;28;20309;-67
2022/02/07 04:05:54;;;;;;;9.48;8.38;;;3.50;99.90;;;;;;5068790;28;20214;-66
2022/02/07 04:08:26;;;;;;;8.85;8.05;;;3.40;99.90;;;;;;5070342;28;20283;-66
2022/02/07 04:11:00;;;;;;;12.07;8.20;;;3.40;99.90;;;;;;5066225;28;20210;-67
2022/02/07 04:13:30;;;;;;;10.48;8.38;;;3.40;99.90;;;;;;5068815;28;20224;-66
2022/02/07 04:15:57;;;;;;;8.65;7.82;;;3.30;99.90;;;;;;5069594;28;20218;-67
2022/02/07 04:18:29;;;;;;;8.57;7.80;;;3.10;99.90;;;;;;5071254;28;20221;-66
2022/02/07 04:20:56;;;;;;;9.75;8.77;;;3.10;99.90;;;;;;5066424;28;21579;-67
2022/02/07 04:23:23;;;;;;;8.15;7.22;;;3.10;99.90;;;;;;5066977;28;20225;-66
2022/02/07 04:25:50;;;;;;;9.38;8.38;;;3.10;99.90;;;;;;5069447;28;20307;-67
2022/02/07 04:28:17;;;;;;;9.07;8.15;;;3.10;99.90;;;;;;5090468;28;20218;-67
2022/02/07 04:30:45;;;;;;;10.55;8.63;;;3.10;99.90;;;;;;5088125;28;20215;-67
2022/02/07 04:33:12;;;;;;;11.93;9.90;;;3.10;99.90;;;;;;5095689;28;20218;-67
2022/02/07 04:35:40;;;;;;;11.98;10.73;;;2.90;99.90;;;;;;5078450;28;20457;-66
2022/02/07 04:38:07;;;;;;;12.02;10.45;;;2.90;99.90;;;;;;5069489;28;20226;-66
2022/02/07 04:40:34;;;;;;;12.98;11.55;;;2.80;99.90;;;;;;5069330;28;20236;-66
2022/02/07 04:43:01;;;;;;;12.52;11.23;;;2.80;99.90;;;;;;5070095;28;20711;-67
2022/02/07 04:45:39;;;;;;;12.10;10.90;;;2.70;99.90;;;;;;5072922;28;20221;-66
2022/02/07 04:54:13;;;;;;;13.77;12.18;;;2.30;99.90;;;;;;5056368;28;20229;-67
2022/02/07 04:59:36;;;;;;;12.40;11.10;;;2.00;99.90;;;;;;5065598;28;20252;-66
2022/02/07 05:02:09;;;;;;;13.45;11.68;;;2.00;99.90;;;;;;5066234;28;20198;-66
2022/02/07 05:04:42;;;;;;;13.38;10.95;;;2.00;99.90;;;;;;5066146;28;20214;-67
2022/02/07 05:15:23;;;;;;;11.98;10.82;;;1.90;99.90;;;;;;5066860;28;20263;-68
2022/02/07 05:17:50;;;;;;;11.77;10.50;;;1.80;99.90;;;;;;5066919;28;20197;-68
2022/02/07 05:20:17;;;;;;;9.60;8.70;;;1.70;99.90;;;;;;5067620;28;20205;-68
2022/02/07 05:22:46;;;;;;;10.95;9.95;;;1.70;99.90;;;;;;5066378;28;20259;-68
2022/02/07 05:25:13;;;;;;;9.68;8.73;;;1.80;99.90;;;;;;5070302;28;20226;-68
2022/02/07 05:27:40;;;;;;;9.32;8.43;;;1.80;99.90;;;;;;5066369;28;20195;-68
2022/02/07 05:30:08;;;;;;;7.63;6.93;;;1.80;99.90;;;;;;5070054;28;20567;-69
2022/02/07 05:32:35;;;;;;;7.38;6.75;;;1.80;99.90;;;;;;5069713;28;20201;-68
2022/02/07 05:35:02;;;;;;;7.03;6.45;;;2.00;99.90;;;;;;5066829;28;20241;-69
2022/02/07 05:37:31;;;;;;;5.85;5.35;;;2.20;99.90;;;;;;5073855;28;20248;-68
2022/02/07 05:40:06;;;;;;;7.75;7.05;;;2.30;99.90;;;;;;5069312;28;20224;-69
2022/02/07 05:42:34;;;;;;;7.28;6.68;;;2.30;99.90;;;;;;5067701;28;20243;-68
2022/02/07 05:45:02;;;;;;;6.95;6.35;;;2.30;99.90;;;;;;5066460;28;20223;-68
2022/02/07 05:47:29;;;;;;;7.57;6.88;;;2.30;99.90;;;;;;5071034;28;20209;-69
2022/02/07 05:49:56;;;;;;;9.48;8.57;;;2.30;99.90;;;;;;5068167;28;20225;-69
2022/02/07 05:52:23;;;;;;;8.65;7.85;;;2.30;99.90;;;;;;5069213;28;20224;-68
2022/02/07 05:54:50;;;;;;;7.78;7.07;;;2.30;99.90;;;;;;5068418;28;20261;-68
2022/02/07 05:57:19;;;;;;;10.00;9.02;;;2.40;99.90;;;;;;5069938;28;20194;-68
2022/02/07 05:59:46;;;;;;;15.20;12.05;;;2.40;99.90;;;;;;5066874;28;20683;-68
2022/02/07 06:02:13;;;;;;;16.80;14.48;;;2.40;99.90;;;;;;5068007;28;20251;-68
2022/02/07 06:04:40;;;;;;;14.18;12.45;;;2.40;99.90;;;;;;5069681;28;20222;-68
2022/02/07 06:07:07;;;;;;;13.02;11.75;;;2.30;99.90;;;;;;5070377;28;20206;-68
2022/02/07 06:09:34;;;;;;;12.13;10.88;;;2.30;99.90;;;;;;5070084;28;20213;-68
2022/02/07 06:12:01;;;;;;;12.05;10.88;;;2.40;99.90;;;;;;5066231;28;20697;-69
2022/02/07 06:14:29;;;;;;;14.40;12.90;;;2.40;99.90;;;;;;5064763;28;20236;-68
2022/02/07 06:16:56;;;;;;;15.38;13.82;;;2.40;99.90;;;;;;5071124;28;20198;-68
2022/02/07 06:19:23;;;;;;;12.60;11.40;;;2.40;99.90;;;;;;5067510;28;20224;-68
2022/02/07 06:21:52;;;;;;;13.07;11.73;;;2.50;99.90;;;;;;5065588;28;20186;-68
2022/02/07 06:24:19;;;;;;;13.40;12.00;;;2.50;99.90;;;;;;5065282;28;20245;-69
2022/02/07 06:26:46;;;;;;;17.30;14.57;;;2.60;99.90;;;;;;5069375;28;20210;-68
2022/02/07 06:29:13;;;;;;;14.68;13.18;;;2.60;99.90;;;;;;5069061;28;20222;-68
2022/02/07 06:31:41;;;;;;;13.27;11.88;;;2.70;99.90;;;;;;5069461;28;20319;-68
2022/02/07 06:36:42;;;;;;;14.50;12.68;;;2.70;99.90;;;;;;5112236;22;20230;-74
2022/02/07 06:39:09;;;;;;;14.73;13.23;;;2.70;99.90;;;;;;5046808;28;20279;-73
2022/02/07 06:41:36;;;;;;;16.45;14.75;;;2.70;99.90;;;;;;5072585;28;20191;-74
2022/02/07 06:44:05;;;;;;;13.13;11.82;;;2.80;99.90;;;;;;5064027;28;20762;-76
2022/02/07 06:46:32;;;;;;;12.45;11.15;;;2.80;99.90;;;;;;5075107;28;22125;-73
2022/02/07 06:49:00;;;;;;;12.13;11.02;;;2.90;99.90;;;;;;5070909;28;20223;-72
2022/02/07 06:51:27;;;;;;;10.00;9.13;;;3.10;99.90;;;;;;5075091;28;20218;-74
2022/02/07 06:53:54;;;;;;;12.45;11.15;;;3.30;99.90;;;;;;5073275;28;20222;-74
2022/02/07 06:56:21;;;;;;;10.18;9.27;;;3.30;99.90;;;;;;5074327;28;20213;-73
2022/02/07 06:58:49;;;;;;;14.82;11.07;;;3.40;99.90;;;;;;5070207;28;20218;-71
2022/02/07 07:01:16;;;;;;;14.75;13.25;;;3.50;99.90;;;;;;5077550;28;20197;-73
2022/02/07 07:03:45;;;;;;;18.60;16.60;;;3.60;99.90;;;;;;5068287;28;20213;-73
2022/02/07 07:06:14;;;;;;;14.98;13.55;;;3.60;99.90;;;;;;5070380;28;20218;-72
2022/02/07 07:08:46;;;;;;;15.05;13.50;;;3.50;99.90;;;;;;5071164;28;20595;-73
2022/02/07 07:11:15;;;;;;;16.65;14.98;;;3.40;99.90;;;;;;5073379;28;20210;-75
2022/02/07 07:13:48;;;;;;;17.10;15.35;;;3.30;99.90;;;;;;5068838;28;20257;-73
2022/02/07 07:16:37;;;;;;;9.90;8.93;;;3.10;99.90;;;;;;5067712;28;20221;-73
2022/02/07 07:19:05;;;;;;;14.10;12.57;;;3.10;99.90;;;;;;5065177;28;20632;-73
2022/02/07 07:21:34;;;;;;;13.70;12.20;;;3.30;99.90;;;;;;5064689;28;20275;-74
2022/02/07 07:24:04;;;;;;;8.75;7.95;;;3.20;99.90;;;;;;5062410;28;20689;-75
2022/02/07 07:26:32;;;;;;;7.53;6.78;;;3.20;99.90;;;;;;5068074;28;20214;-73
2022/02/07 07:29:02;;;;;;;6.43;5.85;;;3.40;99.90;;;;;;5067838;28;20231;-73
2022/02/07 07:31:29;;;;;;;9.45;8.45;;;3.60;99.90;;;;;;5068314;28;20689;-75
2022/02/07 07:33:56;;;;;;;10.75;9.75;;;3.80;99.90;;;;;;5066321;28;20218;-74
2022/02/07 07:36:23;;;;;;;12.80;11.63;;;3.70;99.90;;;;;;5066142;28;20225;-78
2022/02/07 07:38:51;;;;;;;12.25;10.95;;;3.60;99.90;;;;;;5062168;28;20222;-75
2022/02/07 07:41:19;;;;;;;11.15;10.05;;;3.40;99.90;;;;;;5066146;28;20198;-76
2022/02/07 07:43:48;;;;;;;10.02;9.02;;;3.30;99.90;;;;;;5063969;28;20337;-76
2022/02/07 07:46:18;;;;;;;12.75;11.38;;;3.30;99.90;;;;;;5069940;28;20489;-76
2022/02/07 07:48:54;;;;;;;12.85;11.30;;;3.40;99.90;;;;;;5066093;28;20715;-73
2022/02/07 07:51:33;;;;;;;12.00;10.85;;;3.30;99.90;;;;;;5061240;28;20217;-74
2022/02/07 08:02:24;;;;;;;12.55;11.25;;;3.40;99.90;;;;;;5061554;28;20197;-76
2022/02/07 08:04:53;;;;;;;11.00;10.00;;;3.50;99.90;;;;;;5062003;28;20231;-73
2022/02/07 08:07:23;;;;;;;10.80;9.80;;;3.80;99.90;;;;;;5067580;28;20208;-74
2022/02/07 08:12:47;;;;;;;7.18;6.47;;;5.00;99.90;;;;;;5014091;28;20667;-74
2022/02/07 08:15:16;;;;;;;6.32;5.82;;;5.40;99.90;;;;;;5065846;28;20226;-74
2022/02/07 08:17:43;;;;;;;6.50;6.00;;;5.50;99.90;;;;;;5069130;28;20202;-74
2022/02/07 08:20:12;;;;;;;6.80;6.20;;;5.50;99.90;;;;;;5066596;28;20477;-77
2022/02/07 08:22:39;;;;;;;6.65;6.03;;;5.40;99.90;;;;;;5063970;28;20194;-76
2022/02/07 08:25:09;;;;;;;5.82;5.32;;;5.30;99.90;;;;;;5063631;28;20583;-75
2022/02/07 08:27:38;;;;;;;6.68;6.18;;;5.20;99.90;;;;;;5065379;28;20488;-75
2022/02/07 08:30:06;;;;;;;5.00;4.60;;;5.10;99.90;;;;;;5060007;28;20222;-76
2022/02/07 08:32:33;;;;;;;5.20;4.70;;;5.10;99.90;;;;;;5062405;28;20236;-76
2022/02/07 08:35:01;;;;;;;5.43;4.93;;;5.10;99.90;;;;;;5061572;28;20241;-73
2022/02/07 08:37:29;;;;;;;5.30;4.90;;;5.10;99.90;;;;;;5064765;28;20218;-75
2022/02/07 08:39:56;;;;;;;4.50;4.20;;;5.10;99.90;;;;;;5064589;28;20218;-78
2022/02/07 08:42:24;;;;;;;3.90;3.60;;;5.10;99.90;;;;;;5060865;28;20191;-78
2022/02/07 08:44:51;;;;;;;4.32;4.03;;;5.10;99.90;;;;;;5066185;28;20230;-73
2022/02/07 08:47:18;;;;;;;4.50;4.20;;;5.00;99.90;;;;;;5065669;28;20943;-72
2022/02/07 08:49:45;;;;;;;6.70;6.10;;;5.00;99.90;;;;;;5066875;28;20230;-78
2022/02/07 08:52:15;;;;;;;7.28;6.57;;;5.00;99.90;;;;;;5061814;28;20228;-74
2022/02/07 08:54:42;;;;;;;7.47;6.78;;;4.90;99.90;;;;;;5060855;28;20244;-73
2022/02/07 08:57:24;;;;;;;8.00;7.30;;;4.80;99.90;;;;;;5067168;28;20198;-74
2022/02/07 09:00:04;;;;;;;7.05;6.10;;;4.70;99.90;;;;;;5057982;28;22032;-75
2022/02/07 09:02:56;;;;;;;9.23;8.27;;;4.60;99.90;;;;;;5060837;28;20187;-72
2022/02/07 09:05:38;;;;;;;10.27;9.32;;;4.60;99.90;;;;;;5059977;28;20236;-75
2022/02/07 09:08:22;;;;;;;9.63;8.73;;;4.60;99.90;;;;;;5061428;28;20201;-74
2022/02/07 09:10:51;;;;;;;7.20;6.68;;;4.60;99.90;;;;;;5058108;28;20283;-75
2022/02/07 09:13:19;;;;;;;5.68;5.25;;;4.50;99.90;;;;;;5062673;28;20214;-73
2022/02/07 09:16:05;;;;;;;5.10;4.70;;;4.50;99.90;;;;;;5066287;28;20229;-74
2022/02/07 09:18:32;;;;;;;3.60;3.30;;;4.60;99.90;;;;;;5057840;28;20640;-75
2022/02/07 09:21:00;;;;;;;4.82;4.50;;;4.70;99.90;;;;;;5059968;28;20194;-76
2022/02/07 09:23:28;;;;;;;4.65;4.35;;;4.70;99.90;;;;;;5058525;28;20198;-74
2022/02/07 09:25:56;;;;;;;5.68;4.50;;;4.70;99.90;;;;;;5058545;28;20310;-73
2022/02/07 09:28:23;;;;;;;5.97;5.45;;;4.60;99.90;;;;;;5061998;28;20260;-76
2022/02/07 09:30:53;;;;;;;7.93;6.97;;;4.50;99.90;;;;;;5062074;28;20301;-74
2022/02/07 09:33:20;;;;;;;3.75;3.47;;;4.40;99.90;;;;;;5066234;28;21961;-75
2022/02/07 09:35:50;;;;;;;3.40;3.10;;;4.30;99.90;;;;;;5062170;28;20226;-78
2022/02/07 09:38:17;;;;;;;3.20;3.00;;;4.30;99.90;;;;;;5066501;28;20751;-78
2022/02/07 09:40:49;;;;;;;3.28;2.97;;;4.40;99.90;;;;;;5065877;28;20222;-76
2022/02/07 09:43:17;;;;;;;2.85;2.75;;;4.40;99.90;;;;;;5062067;28;20199;-79
2022/02/07 09:45:47;;;;;;;2.67;2.58;;;4.30;99.90;;;;;;5055187;28;20729;-76
2022/02/07 09:48:17;;;;;;;2.60;2.50;;;4.30;99.90;;;;;;5059190;28;20530;-73
2022/02/07 09:50:44;;;;;;;2.60;2.50;;;4.30;99.90;;;;;;5056766;28;20220;-73
2022/02/07 09:53:12;;;;;;;2.58;2.47;;;4.30;99.90;;;;;;5064894;28;20245;-74
2022/02/07 09:55:39;;;;;;;3.15;2.45;;;4.20;99.90;;;;;;5060872;28;20226;-74
2022/02/07 09:58:07;;;;;;;2.75;2.55;;;4.20;99.90;;;;;;5063032;28;20749;-73
2022/02/07 10:00:36;;;;;;;3.45;3.25;;;4.20;99.90;;;;;;5060166;28;20228;-73
2022/02/07 10:03:09;;;;;;;2.75;2.63;;;4.10;99.90;;;;;;5056842;28;20680;-71
2022/02/07 10:05:48;;;;;;;3.10;2.90;;;4.20;99.90;;;;;;5055689;28;20218;-73
2022/02/07 10:08:21;;;;;;;3.30;3.10;;;4.30;99.90;;;;;;5057895;28;20200;-74
2022/02/07 10:11:10;;;;;;;3.10;2.90;;;4.50;99.90;;;;;;5055098;28;20226;-75
2022/02/07 10:13:46;;;;;;;3.15;3.03;;;4.90;99.90;;;;;;5058400;28;20755;-74
2022/02/07 10:16:32;;;;;;;3.17;2.97;;;6.10;99.90;;;;;;5059156;28;20296;-73
2022/02/07 10:19:16;;;;;;;2.97;2.78;;;7.20;99.90;;;;;;5062431;28;20225;-72
2022/02/07 10:38:53;;;;;;;3.80;3.50;;;7.20;99.90;;;;;;5059614;28;20205;-73
2022/02/07 10:41:55;;;;;;;4.00;3.70;;;7.00;99.90;;;;;;5065002;28;20225;-74
2022/02/07 10:44:38;;;;;;;2.78;2.58;;;6.80;99.90;;;;;;5061862;28;20221;-76
2022/02/07 10:47:11;;;;;;;3.20;3.00;;;6.80;99.90;;;;;;5060200;28;20202;-76
2022/02/07 10:49:57;;;;;;;2.40;2.30;;;6.80;99.90;;;;;;5061363;28;20237;-74
2022/02/07 10:52:25;;;;;;;2.30;2.20;;;6.90;99.90;;;;;;5061512;28;20218;-76
2022/02/07 10:54:53;;;;;;;2.20;2.10;;;7.30;99.90;;;;;;5060526;28;20732;-73
2022/02/07 10:57:20;;;;;;;2.50;2.40;;;7.40;99.90;;;;;;5066047;28;20213;-76
2022/02/07 10:59:48;;;;;;;2.50;2.40;;;7.40;99.90;;;;;;5063553;28;20278;-74
2022/02/07 11:05:01;;;;;;;2.22;2.10;;;7.30;99.90;;;;;;5061586;28;20215;-77
2022/02/07 11:07:31;;;;;;;2.58;2.42;;;7.60;99.90;;;;;;5063581;28;20236;-76
2022/02/07 11:10:25;;;;;;;3.05;2.85;;;7.90;99.90;;;;;;5057993;28;20224;-74
2022/02/07 11:15:41;;;;;;;2.63;2.50;;;8.10;99.90;;;;;;5063521;28;20259;-73
2022/02/07 11:18:34;;;;;;;2.40;2.30;;;8.20;99.90;;;;;;5060542;28;20281;-75
2022/02/07 11:21:16;;;;;;;3.15;2.95;;;8.20;99.90;;;;;;5059680;28;20601;-76
2022/02/07 11:23:52;;;;;;;3.08;2.88;;;8.20;99.90;;;;;;5059550;28;20269;-75
2022/02/07 11:26:36;;;;;;;4.20;3.90;;;8.10;99.90;;;;;;5061205;28;20248;-73
2022/02/07 11:29:03;;;;;;;10.45;8.27;;;8.00;99.90;;;;;;5064393;28;20252;-75
2022/02/07 11:31:32;;;;;;;8.65;6.50;;;8.10;99.90;;;;;;5068029;28;20786;-73
2022/02/07 11:34:11;;;;;;;7.00;6.32;;;8.50;99.90;;;;;;5063430;28;20222;-72
2022/02/07 11:36:40;;;;;;;4.85;4.45;;;8.60;99.90;;;;;;5062643;28;20620;-74
2022/02/07 11:39:13;;;;;;;3.45;3.13;;;8.80;99.90;;;;;;5064669;28;20564;-76
2022/02/07 11:42:11;;;;;;;2.55;2.35;;;9.00;99.90;;;;;;5066788;28;20226;-72
2022/02/07 11:45:20;;;;;;;1.95;1.85;;;9.10;99.90;;;;;;5063842;28;20255;-74
2022/02/07 11:47:49;;;;;;;2.20;2.10;;;9.30;99.90;;;;;;5053176;28;20225;-73
2022/02/07 11:50:21;;;;;;;2.72;2.47;;;9.20;99.90;;;;;;5062137;28;20256;-73
2022/02/07 11:52:50;;;;;;;2.95;2.65;;;9.00;99.90;;;;;;5066898;28;20301;-74
2022/02/07 11:55:19;;;;;;;2.65;2.45;;;9.10;99.90;;;;;;5064560;28;20232;-74
2022/02/07 11:57:56;;;;;;;2.45;2.25;;;9.30;99.90;;;;;;5062769;28;20681;-75
2022/02/07 12:00:30;;;;;;;2.25;2.15;;;9.70;99.90;;;;;;5059332;28;20283;-76
2022/02/07 12:03:02;;;;;;;2.60;2.40;;;10.00;99.90;;;;;;5059225;28;20222;-74
2022/02/07 12:05:32;;;;;;;2.88;2.67;;;10.10;99.90;;;;;;5063762;28;20748;-75
2022/02/07 12:08:01;;;;;;;2.58;2.38;;;10.10;99.90;;;;;;5061234;28;20256;-73
2022/02/07 12:10:37;;;;;;;2.80;2.60;;;10.10;99.90;;;;;;5064332;28;20580;-72
2022/02/07 12:13:30;;;;;;;2.55;2.35;;;10.00;99.90;;;;;;5064590;28;20715;-73
2022/02/07 12:15:59;;;;;;;2.13;1.92;;;10.10;99.90;;;;;;5067244;28;20230;-73
2022/02/07 12:18:27;;;;;;;1.90;1.80;;;9.90;99.90;;;;;;5065021;28;20592;-74
2022/02/07 12:20:56;;;;;;;2.13;2.03;;;9.60;99.90;;;;;;5064193;28;20286;-75
2022/02/07 12:23:30;;;;;;;1.50;1.40;;;9.40;99.90;;;;;;5070337;28;20236;-76
2022/02/07 12:26:05;;;;;;;2.58;2.38;;;9.20;99.90;;;;;;5069588;28;20218;-74
2022/02/07 12:28:43;;;;;;;2.88;2.53;;;9.30;99.90;;;;;;5063763;28;20222;-71
2022/02/07 12:31:17;;;;;;;2.25;2.03;;;9.50;99.90;;;;;;5064539;28;20232;-72
2022/02/07 12:33:47;;;;;;;3.85;1.90;;;9.60;99.90;;;;;;5068552;28;20209;-76
2022/02/07 12:36:14;;;;;;;2.85;2.65;;;9.50;99.90;;;;;;5080393;22;20277;-67
2022/02/07 12:38:42;;;;;;;3.53;3.22;;;9.30;99.90;;;;;;5040698;28;20273;-67
2022/02/07 12:41:14;;;;;;;2.55;2.38;;;9.40;99.90;;;;;;5037074;28;20254;-69
2022/02/07 12:43:44;;;;;;;3.72;3.13;;;9.50;99.90;;;;;;5039193;28;20210;-69
2022/02/07 12:46:15;;;;;;;2.75;2.20;;;9.80;99.90;;;;;;5044075;28;20326;-68
2022/02/07 12:48:50;;;;;;;2.58;1.90;;;10.10;99.90;;;;;;5041933;28;20592;-69
2022/02/07 12:51:19;;;;;;;1.48;1.48;;;10.30;99.90;;;;;;5042187;28;20214;-68
2022/02/07 12:53:46;;;;;;;1.75;1.65;;;10.20;99.90;;;;;;5042152;28;20227;-68
2022/02/07 12:56:13;;;;;;;1.75;1.65;;;10.10;99.90;;;;;;5043572;28;20221;-68
2022/02/07 12:58:43;;;;;;;1.95;1.85;;;10.10;99.90;;;;;;5043805;28;20595;-69
2022/02/07 13:01:20;;;;;;;2.08;1.98;;;10.00;99.90;;;;;;5041368;28;20557;-68
2022/02/07 13:03:53;;;;;;;2.15;2.05;;;10.00;99.90;;;;;;5043368;28;20393;-68
2022/02/07 13:06:26;;;;;;;1.98;1.77;;;9.90;99.90;;;;;;5042359;28;20633;-68
2022/02/07 13:08:55;;;;;;;1.77;1.65;;;9.80;99.90;;;;;;5043281;28;20252;-67
2022/02/07 13:11:28;;;;;;;2.00;1.80;;;9.70;99.90;;;;;;5042776;28;20219;-68
2022/02/07 13:13:58;;;;;;;1.45;1.40;;;9.80;99.90;;;;;;5041962;28;20927;-72
2022/02/07 13:16:31;;;;;;;2.17;1.98;;;10.20;99.90;;;;;;5042016;28;20702;-69
2022/02/07 13:19:12;;;;;;;1.73;1.52;;;10.30;99.90;;;;;;5038325;28;20198;-68
2022/02/07 13:21:42;;;;;;;3.03;2.65;;;10.40;99.90;;;;;;5038906;28;20419;-69
2022/02/07 13:24:15;;;;;;;4.25;1.85;;;10.20;99.90;;;;;;5035885;28;20198;-70
2022/02/07 13:26:47;;;;;;;1.55;1.45;;;9.90;99.90;;;;;;5042527;28;20219;-70
2022/02/07 13:29:21;;;;;;;1.25;1.25;;;9.80;99.90;;;;;;5043569;28;20238;-68
2022/02/07 13:31:59;;;;;;;1.65;1.55;;;9.90;99.90;;;;;;5049887;28;20227;-69
2022/02/07 13:34:28;;;;;;;1.80;1.70;;;10.00;99.90;;;;;;5043445;28;20226;-68
2022/02/07 13:37:07;;;;;;;1.70;1.60;;;10.10;99.60;;;;;;5038081;28;20273;-69
2022/02/07 13:39:53;;;;;;;2.13;1.40;;;10.20;99.30;;;;;;5040227;28;20216;-69
2022/02/07 13:42:26;;;;;;;1.80;1.70;;;10.20;97.80;;;;;;5039545;28;20218;-69
2022/02/07 13:44:58;;;;;;;1.80;1.70;;;10.20;96.20;;;;;;5040974;28;20230;-71
2022/02/07 13:47:26;;;;;;;1.77;1.67;;;10.30;97.70;;;;;;5035963;28;20218;-70
2022/02/07 13:49:58;;;;;;;1.60;1.50;;;10.50;96.20;;;;;;5039845;28;20273;-71
2022/02/07 13:52:29;;;;;;;1.52;1.42;;;10.50;95.00;;;;;;5036709;28;20299;-71
2022/02/07 13:55:14;;;;;;;3.33;1.45;;;10.40;92.60;;;;;;5036954;28;20203;-71
2022/02/07 13:57:58;;;;;;;1.45;1.35;;;10.30;92.10;;;;;;5038236;28;20226;-68
2022/02/07 14:00:29;;;;;;;1.13;1.13;;;10.10;90.00;;;;;;5038952;28;20219;-69
2022/02/07 14:03:11;;;;;;;1.52;1.52;;;10.20;90.50;;;;;;5039471;28;20206;-68
2022/02/07 14:05:40;;;;;;;1.60;1.50;;;10.00;85.80;;;;;;5041921;28;20253;-68
2022/02/07 14:08:10;;;;;;;1.20;1.20;;;9.70;85.70;;;;;;5038321;28;20590;-68
2022/02/07 14:10:38;;;;;;;1.30;1.10;;;9.50;84.40;;;;;;5041651;28;20191;-68
2022/02/07 14:13:07;;;;;;;1.42;1.40;;;9.40;85.20;;;;;;5041357;28;20313;-67
2022/02/07 14:15:36;;;;;;;1.95;1.10;;;9.40;83.60;;;;;;5042571;28;20474;-68
2022/02/07 14:18:07;;;;;;;1.52;1.40;;;9.50;81.80;;;;;;5040820;28;20725;-68
2022/02/07 14:20:36;;;;;;;1.50;1.50;;;9.60;80.90;;;;;;5041035;28;20203;-71
2022/02/07 14:23:03;;;;;;;1.58;1.48;;;9.60;81.20;;;;;;5039899;28;20298;-68
2022/02/07 14:25:31;;;;;;;1.48;1.42;;;9.60;79.90;;;;;;5041578;28;20715;-68
2022/02/07 14:27:59;;;;;;;1.88;1.70;;;9.60;82.60;;;;;;5037343;28;20312;-69
2022/02/07 14:30:29;;;;;;;1.75;1.35;;;9.60;80.70;;;;;;5041710;28;20256;-68
2022/02/07 14:32:59;;;;;;;2.20;1.83;;;9.50;78.10;;;;;;5042583;28;20219;-68
2022/02/07 14:35:26;;;;;;;3.17;2.88;;;9.50;81.20;;;;;;5038567;28;20221;-70
2022/02/07 14:37:56;;;;;;;1.40;1.40;;;9.60;78.60;;;;;;5042229;28;20215;-70
2022/02/07 14:40:24;;;;;;;1.58;1.58;;;9.60;80.70;;;;;;5039067;28;20195;-70
2022/02/07 14:42:51;;;;;;;4.82;1.60;;;9.60;79.20;;;;;;5039334;28;20222;-69
2022/02/07 14:45:25;;;;;;;1.30;1.30;;;9.40;79.00;;;;;;5039927;28;20217;-69
2022/02/07 14:47:53;;;;;;;1.70;1.60;;;9.10;78.10;;;;;;5039842;28;20727;-71